< < Back
Terminal Aerodrome Forecast


Current Version              Previous Versions:   1  2  3  4  5  6  7  8  9  

Terminal Aerodrome Forecast

970
FTUS42 KFFC 280152 AAA
TAFPDK
TAF AMD
KPDK 280152Z 2802/2824 24010KT P6SM SCT080
     FM280400 25005KT P6SM SCT250
     FM281500 23010G15KT P6SM BKN030
     FM281800 24012G18KT P6SM VCSH BKN050=

Latest METAR

795
SAUS70 KWBC 281000 RRH
MTRPDK
METAR KPDK 280953Z AUTO 22008KT 10SM CLR 23/20 A3003 RMK AO2 SLP147
T02330200


USA.gov is the U.S. government's official web portal to all federal, state and local government web resources and services.